sensor_id;sensor_type;location;lat;lon;timestamp;P1;durP1;ratioP1;P2;durP2;ratioP2
64619;SDS011;51029;51.058;13.826;2022-07-30T00:01:03;10.83;;;6.40;;
64619;SDS011;51029;51.058;13.826;2022-07-30T00:03:29;9.40;;;6.20;;
64619;SDS011;51029;51.058;13.826;2022-07-30T00:05:55;6.20;;;5.53;;
64619;SDS011;51029;51.058;13.826;2022-07-30T00:08:21;10.37;;;6.00;;
64619;SDS011;51029;51.058;13.826;2022-07-30T00:10:47;8.77;;;5.90;;
64619;SDS011;51029;51.058;13.826;2022-07-30T00:13:13;8.83;;;5.37;;
64619;SDS011;51029;51.058;13.826;2022-07-30T00:15:39;9.20;;;7.10;;
64619;SDS011;51029;51.058;13.826;2022-07-30T00:18:05;10.17;;;7.50;;
64619;SDS011;51029;51.058;13.826;2022-07-30T00:20:31;9.73;;;7.40;;
64619;SDS011;51029;51.058;13.826;2022-07-30T00:22:57;8.00;;;6.90;;
64619;SDS011;51029;51.058;13.826;2022-07-30T00:25:23;8.20;;;6.37;;
64619;SDS011;51029;51.058;13.826;2022-07-30T00:27:49;6.70;;;6.10;;
64619;SDS011;51029;51.058;13.826;2022-07-30T00:30:15;7.27;;;5.87;;
64619;SDS011;51029;51.058;13.826;2022-07-30T00:32:41;6.83;;;6.13;;
64619;SDS011;51029;51.058;13.826;2022-07-30T00:35:07;6.40;;;5.70;;
64619;SDS011;51029;51.058;13.826;2022-07-30T00:37:33;7.10;;;5.93;;
64619;SDS011;51029;51.058;13.826;2022-07-30T00:39:59;5.70;;;5.20;;
64619;SDS011;51029;51.058;13.826;2022-07-30T00:42:35;5.83;;;5.33;;
64619;SDS011;51029;51.058;13.826;2022-07-30T00:45:01;6.07;;;5.47;;
64619;SDS011;51029;51.058;13.826;2022-07-30T00:47:27;6.93;;;6.17;;
64619;SDS011;51029;51.058;13.826;2022-07-30T00:49:53;6.83;;;5.43;;
64619;SDS011;51029;51.058;13.826;2022-07-30T00:52:19;6.00;;;5.50;;
64619;SDS011;51029;51.058;13.826;2022-07-30T00:54:45;8.00;;;5.93;;
64619;SDS011;51029;51.058;13.826;2022-07-30T00:57:11;6.13;;;5.37;;
64619;SDS011;51029;51.058;13.826;2022-07-30T00:59:37;7.53;;;5.93;;
64619;SDS011;51029;51.058;13.826;2022-07-30T01:02:03;6.87;;;5.60;;
64619;SDS011;51029;51.058;13.826;2022-07-30T01:04:29;6.93;;;5.57;;
64619;SDS011;51029;51.058;13.826;2022-07-30T01:06:55;5.90;;;5.40;;
64619;SDS011;51029;51.058;13.826;2022-07-30T01:09:21;7.00;;;5.60;;
64619;SDS011;51029;51.058;13.826;2022-07-30T01:11:47;6.07;;;5.43;;
64619;SDS011;51029;51.058;13.826;2022-07-30T01:14:13;8.17;;;5.67;;
64619;SDS011;51029;51.058;13.826;2022-07-30T01:16:39;8.47;;;5.10;;
64619;SDS011;51029;51.058;13.826;2022-07-30T01:19:07;6.83;;;6.17;;
64619;SDS011;51029;51.058;13.826;2022-07-30T01:21:54;6.57;;;5.70;;
64619;SDS011;51029;51.058;13.826;2022-07-30T01:24:29;6.83;;;6.13;;
64619;SDS011;51029;51.058;13.826;2022-07-30T01:26:58;6.70;;;5.60;;
64619;SDS011;51029;51.058;13.826;2022-07-30T01:29:24;6.80;;;5.80;;
64619;SDS011;51029;51.058;13.826;2022-07-30T01:31:52;8.10;;;6.30;;
64619;SDS011;51029;51.058;13.826;2022-07-30T01:34:23;6.53;;;5.93;;
64619;SDS011;51029;51.058;13.826;2022-07-30T01:36:49;7.27;;;5.87;;
64619;SDS011;51029;51.058;13.826;2022-07-30T01:39:15;7.87;;;6.10;;
64619;SDS011;51029;51.058;13.826;2022-07-30T01:41:42;8.87;;;6.53;;
64619;SDS011;51029;51.058;13.826;2022-07-30T01:44:09;7.37;;;5.97;;
64619;SDS011;51029;51.058;13.826;2022-07-30T01:46:37;8.53;;;6.27;;
64619;SDS011;51029;51.058;13.826;2022-07-30T01:49:03;9.67;;;6.40;;
64619;SDS011;51029;51.058;13.826;2022-07-30T01:51:29;7.23;;;6.53;;
64619;SDS011;51029;51.058;13.826;2022-07-30T01:53:56;9.07;;;6.37;;
64619;SDS011;51029;51.058;13.826;2022-07-30T01:56:23;6.93;;;5.90;;
64619;SDS011;51029;51.058;13.826;2022-07-30T01:58:50;7.10;;;6.40;;
64619;SDS011;51029;51.058;13.826;2022-07-30T02:01:17;7.00;;;6.30;;
64619;SDS011;51029;51.058;13.826;2022-07-30T02:03:43;7.27;;;6.17;;
64619;SDS011;51029;51.058;13.826;2022-07-30T02:06:12;7.37;;;6.53;;
64619;SDS011;51029;51.058;13.826;2022-07-30T02:08:40;7.13;;;6.43;;
64619;SDS011;51029;51.058;13.826;2022-07-30T02:11:11;7.10;;;6.40;;
64619;SDS011;51029;51.058;13.826;2022-07-30T02:13:43;7.00;;;6.30;;
64619;SDS011;51029;51.058;13.826;2022-07-30T02:16:12;8.37;;;7.17;;
64619;SDS011;51029;51.058;13.826;2022-07-30T02:18:42;7.67;;;6.90;;
64619;SDS011;51029;51.058;13.826;2022-07-30T02:21:13;8.73;;;7.10;;
64619;SDS011;51029;51.058;13.826;2022-07-30T02:23:40;7.93;;;6.53;;
64619;SDS011;51029;51.058;13.826;2022-07-30T02:26:07;7.57;;;6.90;;
64619;SDS011;51029;51.058;13.826;2022-07-30T02:28:35;9.23;;;7.63;;
64619;SDS011;51029;51.058;13.826;2022-07-30T02:31:02;8.23;;;7.43;;
64619;SDS011;51029;51.058;13.826;2022-07-30T02:33:32;7.70;;;6.90;;
64619;SDS011;51029;51.058;13.826;2022-07-30T02:35:59;7.70;;;6.50;;
64619;SDS011;51029;51.058;13.826;2022-07-30T02:38:25;8.20;;;7.23;;
64619;SDS011;51029;51.058;13.826;2022-07-30T02:40:53;8.10;;;7.33;;
64619;SDS011;51029;51.058;13.826;2022-07-30T02:43:20;8.47;;;7.00;;
64619;SDS011;51029;51.058;13.826;2022-07-30T02:45:49;8.80;;;7.90;;
64619;SDS011;51029;51.058;13.826;2022-07-30T02:48:15;8.80;;;7.53;;
64619;SDS011;51029;51.058;13.826;2022-07-30T02:50:41;9.93;;;8.03;;
64619;SDS011;51029;51.058;13.826;2022-07-30T02:53:09;7.80;;;7.10;;
64619;SDS011;51029;51.058;13.826;2022-07-30T02:55:35;8.10;;;7.30;;
64619;SDS011;51029;51.058;13.826;2022-07-30T02:58:03;7.60;;;7.00;;
64619;SDS011;51029;51.058;13.826;2022-07-30T03:00:30;7.87;;;7.17;;
64619;SDS011;51029;51.058;13.826;2022-07-30T03:02:56;9.00;;;7.47;;
64619;SDS011;51029;51.058;13.826;2022-07-30T03:05:23;8.47;;;7.67;;
64619;SDS011;51029;51.058;13.826;2022-07-30T03:07:50;10.37;;;7.20;;
64619;SDS011;51029;51.058;13.826;2022-07-30T03:10:16;8.40;;;7.57;;
64619;SDS011;51029;51.058;13.826;2022-07-30T03:12:43;8.10;;;7.43;;
64619;SDS011;51029;51.058;13.826;2022-07-30T03:15:10;8.50;;;7.70;;
64619;SDS011;51029;51.058;13.826;2022-07-30T03:17:37;8.80;;;7.70;;
64619;SDS011;51029;51.058;13.826;2022-07-30T03:20:04;8.23;;;7.40;;
64619;SDS011;51029;51.058;13.826;2022-07-30T03:22:32;8.33;;;7.53;;
64619;SDS011;51029;51.058;13.826;2022-07-30T03:25:00;9.17;;;8.27;;
64619;SDS011;51029;51.058;13.826;2022-07-30T03:27:27;8.93;;;8.13;;
64619;SDS011;51029;51.058;13.826;2022-07-30T03:29:53;8.67;;;7.87;;
64619;SDS011;51029;51.058;13.826;2022-07-30T03:32:20;8.47;;;7.63;;
64619;SDS011;51029;51.058;13.826;2022-07-30T03:34:46;8.43;;;7.73;;
64619;SDS011;51029;51.058;13.826;2022-07-30T03:37:12;8.60;;;7.80;;
64619;SDS011;51029;51.058;13.826;2022-07-30T03:39:39;8.87;;;7.97;;
64619;SDS011;51029;51.058;13.826;2022-07-30T03:42:05;9.07;;;8.20;;
64619;SDS011;51029;51.058;13.826;2022-07-30T03:44:32;8.83;;;8.03;;
64619;SDS011;51029;51.058;13.826;2022-07-30T03:46:58;9.13;;;8.33;;
64619;SDS011;51029;51.058;13.826;2022-07-30T03:49:24;8.53;;;7.77;;
64619;SDS011;51029;51.058;13.826;2022-07-30T03:51:51;8.33;;;7.53;;
64619;SDS011;51029;51.058;13.826;2022-07-30T03:54:18;9.27;;;7.83;;
64619;SDS011;51029;51.058;13.826;2022-07-30T03:56:44;8.40;;;7.70;;
64619;SDS011;51029;51.058;13.826;2022-07-30T03:59:12;10.00;;;7.93;;
64619;SDS011;51029;51.058;13.826;2022-07-30T04:01:38;9.43;;;8.50;;
64619;SDS011;51029;51.058;13.826;2022-07-30T04:04:05;8.77;;;7.97;;
64619;SDS011;51029;51.058;13.826;2022-07-30T04:06:31;8.57;;;7.87;;
64619;SDS011;51029;51.058;13.826;2022-07-30T04:09:00;8.67;;;7.83;;
64619;SDS011;51029;51.058;13.826;2022-07-30T04:11:26;8.37;;;7.60;;
64619;SDS011;51029;51.058;13.826;2022-07-30T04:13:52;9.47;;;8.47;;
64619;SDS011;51029;51.058;13.826;2022-07-30T04:16:36;11.67;;;8.10;;
64619;SDS011;51029;51.058;13.826;2022-07-30T04:19:02;10.93;;;7.83;;
64619;SDS011;51029;51.058;13.826;2022-07-30T04:21:30;8.13;;;7.33;;
64619;SDS011;51029;51.058;13.826;2022-07-30T04:23:58;10.80;;;8.17;;
64619;SDS011;51029;51.058;13.826;2022-07-30T04:26:25;9.40;;;8.40;;
64619;SDS011;51029;51.058;13.826;2022-07-30T04:29:09;9.00;;;8.10;;
64619;SDS011;51029;51.058;13.826;2022-07-30T04:31:35;9.37;;;8.23;;
64619;SDS011;51029;51.058;13.826;2022-07-30T04:34:02;10.93;;;8.50;;
64619;SDS011;51029;51.058;13.826;2022-07-30T04:36:29;11.63;;;8.70;;
64619;SDS011;51029;51.058;13.826;2022-07-30T04:38:55;10.30;;;8.60;;
64619;SDS011;51029;51.058;13.826;2022-07-30T04:41:21;9.23;;;8.33;;
64619;SDS011;51029;51.058;13.826;2022-07-30T04:43:47;9.17;;;8.27;;
64619;SDS011;51029;51.058;13.826;2022-07-30T04:46:13;9.70;;;8.03;;
64619;SDS011;51029;51.058;13.826;2022-07-30T04:48:39;9.67;;;8.73;;
64619;SDS011;51029;51.058;13.826;2022-07-30T04:51:08;10.67;;;8.80;;
64619;SDS011;51029;51.058;13.826;2022-07-30T04:53:34;10.80;;;9.17;;
64619;SDS011;51029;51.058;13.826;2022-07-30T04:56:00;9.73;;;8.73;;
64619;SDS011;51029;51.058;13.826;2022-07-30T04:58:27;9.17;;;8.27;;
64619;SDS011;51029;51.058;13.826;2022-07-30T05:00:53;10.43;;;8.57;;
64619;SDS011;51029;51.058;13.826;2022-07-30T05:03:19;10.47;;;8.80;;
64619;SDS011;51029;51.058;13.826;2022-07-30T05:05:46;10.67;;;9.57;;
64619;SDS011;51029;51.058;13.826;2022-07-30T05:08:12;9.53;;;8.63;;
64619;SDS011;51029;51.058;13.826;2022-07-30T05:10:39;9.60;;;8.63;;
64619;SDS011;51029;51.058;13.826;2022-07-30T05:13:09;9.67;;;8.77;;
64619;SDS011;51029;51.058;13.826;2022-07-30T05:15:35;9.60;;;8.47;;
64619;SDS011;51029;51.058;13.826;2022-07-30T05:18:01;10.07;;;8.70;;
64619;SDS011;51029;51.058;13.826;2022-07-30T05:20:27;9.90;;;8.60;;
64619;SDS011;51029;51.058;13.826;2022-07-30T05:22:53;9.00;;;8.20;;
64619;SDS011;51029;51.058;13.826;2022-07-30T05:25:19;9.17;;;8.00;;
64619;SDS011;51029;51.058;13.826;2022-07-30T05:27:45;10.97;;;8.83;;
64619;SDS011;51029;51.058;13.826;2022-07-30T05:30:11;9.43;;;8.23;;
64619;SDS011;51029;51.058;13.826;2022-07-30T05:32:37;10.07;;;7.97;;
64619;SDS011;51029;51.058;13.826;2022-07-30T05:35:03;9.43;;;8.03;;
64619;SDS011;51029;51.058;13.826;2022-07-30T05:37:29;9.40;;;8.20;;
64619;SDS011;51029;51.058;13.826;2022-07-30T05:39:55;11.00;;;7.60;;
64619;SDS011;51029;51.058;13.826;2022-07-30T05:42:21;9.27;;;8.17;;
64619;SDS011;51029;51.058;13.826;2022-07-30T05:44:47;8.90;;;8.00;;
64619;SDS011;51029;51.058;13.826;2022-07-30T05:47:13;8.57;;;7.33;;
64619;SDS011;51029;51.058;13.826;2022-07-30T05:49:39;9.33;;;8.37;;
64619;SDS011;51029;51.058;13.826;2022-07-30T05:52:04;9.93;;;8.27;;
64619;SDS011;51029;51.058;13.826;2022-07-30T05:54:30;8.73;;;7.83;;
64619;SDS011;51029;51.058;13.826;2022-07-30T05:56:56;8.40;;;7.60;;
64619;SDS011;51029;51.058;13.826;2022-07-30T05:59:22;9.47;;;7.80;;
64619;SDS011;51029;51.058;13.826;2022-07-30T06:01:48;8.00;;;7.20;;
64619;SDS011;51029;51.058;13.826;2022-07-30T06:04:14;8.57;;;7.60;;
64619;SDS011;51029;51.058;13.826;2022-07-30T06:06:41;8.83;;;7.43;;
64619;SDS011;51029;51.058;13.826;2022-07-30T06:09:07;9.70;;;7.50;;
64619;SDS011;51029;51.058;13.826;2022-07-30T06:11:32;8.80;;;7.90;;
64619;SDS011;51029;51.058;13.826;2022-07-30T06:13:58;8.60;;;7.20;;
64619;SDS011;51029;51.058;13.826;2022-07-30T06:16:25;8.90;;;7.57;;
64619;SDS011;51029;51.058;13.826;2022-07-30T06:18:50;8.23;;;7.00;;
64619;SDS011;51029;51.058;13.826;2022-07-30T06:21:17;12.60;;;7.40;;
64619;SDS011;51029;51.058;13.826;2022-07-30T06:23:43;8.10;;;6.67;;
64619;SDS011;51029;51.058;13.826;2022-07-30T06:26:09;8.50;;;7.70;;
64619;SDS011;51029;51.058;13.826;2022-07-30T06:28:34;9.53;;;7.60;;
64619;SDS011;51029;51.058;13.826;2022-07-30T06:31:00;9.80;;;7.23;;
64619;SDS011;51029;51.058;13.826;2022-07-30T06:33:26;11.33;;;8.00;;
64619;SDS011;51029;51.058;13.826;2022-07-30T06:35:52;9.43;;;7.70;;
64619;SDS011;51029;51.058;13.826;2022-07-30T06:38:18;8.50;;;6.80;;
64619;SDS011;51029;51.058;13.826;2022-07-30T06:40:44;8.10;;;7.40;;
64619;SDS011;51029;51.058;13.826;2022-07-30T06:43:10;8.80;;;7.83;;
64619;SDS011;51029;51.058;13.826;2022-07-30T06:45:36;10.73;;;7.40;;
64619;SDS011;51029;51.058;13.826;2022-07-30T06:48:03;10.73;;;7.17;;
64619;SDS011;51029;51.058;13.826;2022-07-30T06:50:29;12.17;;;7.67;;
64619;SDS011;51029;51.058;13.826;2022-07-30T06:52:55;13.73;;;12.33;;
64619;SDS011;51029;51.058;13.826;2022-07-30T06:55:21;8.47;;;7.23;;
64619;SDS011;51029;51.058;13.826;2022-07-30T06:57:47;9.43;;;7.17;;
64619;SDS011;51029;51.058;13.826;2022-07-30T07:00:14;10.27;;;7.53;;
64619;SDS011;51029;51.058;13.826;2022-07-30T07:02:40;8.40;;;7.60;;
64619;SDS011;51029;51.058;13.826;2022-07-30T07:05:06;8.80;;;7.80;;
64619;SDS011;51029;51.058;13.826;2022-07-30T07:07:33;10.13;;;7.10;;
64619;SDS011;51029;51.058;13.826;2022-07-30T07:09:59;10.93;;;6.93;;
64619;SDS011;51029;51.058;13.826;2022-07-30T07:12:25;10.03;;;6.63;;
64619;SDS011;51029;51.058;13.826;2022-07-30T07:14:51;11.77;;;6.80;;
64619;SDS011;51029;51.058;13.826;2022-07-30T07:17:17;8.37;;;6.43;;
64619;SDS011;51029;51.058;13.826;2022-07-30T07:19:43;9.87;;;6.93;;
64619;SDS011;51029;51.058;13.826;2022-07-30T07:22:09;7.77;;;7.07;;
64619;SDS011;51029;51.058;13.826;2022-07-30T07:24:35;8.20;;;6.73;;
64619;SDS011;51029;51.058;13.826;2022-07-30T07:27:00;9.07;;;6.37;;
64619;SDS011;51029;51.058;13.826;2022-07-30T07:29:26;10.03;;;7.00;;
64619;SDS011;51029;51.058;13.826;2022-07-30T07:31:52;7.13;;;6.40;;
64619;SDS011;51029;51.058;13.826;2022-07-30T07:34:18;11.93;;;6.87;;
64619;SDS011;51029;51.058;13.826;2022-07-30T07:36:44;7.83;;;6.27;;
64619;SDS011;51029;51.058;13.826;2022-07-30T07:39:10;6.77;;;5.90;;
64619;SDS011;51029;51.058;13.826;2022-07-30T07:41:36;8.13;;;6.13;;
64619;SDS011;51029;51.058;13.826;2022-07-30T07:44:03;8.93;;;5.67;;
64619;SDS011;51029;51.058;13.826;2022-07-30T07:46:29;10.40;;;5.87;;
64619;SDS011;51029;51.058;13.826;2022-07-30T07:48:55;7.67;;;5.67;;
64619;SDS011;51029;51.058;13.826;2022-07-30T07:51:21;6.03;;;5.40;;
64619;SDS011;51029;51.058;13.826;2022-07-30T07:53:47;11.97;;;6.13;;
64619;SDS011;51029;51.058;13.826;2022-07-30T07:56:13;7.33;;;5.80;;
64619;SDS011;51029;51.058;13.826;2022-07-30T07:58:39;10.73;;;6.47;;
64619;SDS011;51029;51.058;13.826;2022-07-30T08:01:05;7.47;;;6.40;;
64619;SDS011;51029;51.058;13.826;2022-07-30T08:03:31;7.83;;;6.47;;
64619;SDS011;51029;51.058;13.826;2022-07-30T08:05:57;8.03;;;5.60;;
64619;SDS011;51029;51.058;13.826;2022-07-30T08:08:25;6.50;;;5.73;;
64619;SDS011;51029;51.058;13.826;2022-07-30T08:10:51;10.50;;;6.00;;
64619;SDS011;51029;51.058;13.826;2022-07-30T08:13:17;9.53;;;5.70;;
64619;SDS011;51029;51.058;13.826;2022-07-30T08:15:43;6.03;;;5.40;;
64619;SDS011;51029;51.058;13.826;2022-07-30T08:18:09;8.17;;;5.63;;
64619;SDS011;51029;51.058;13.826;2022-07-30T08:20:37;7.80;;;5.00;;
64619;SDS011;51029;51.058;13.826;2022-07-30T08:23:03;7.67;;;5.53;;
64619;SDS011;51029;51.058;13.826;2022-07-30T08:25:29;8.17;;;5.67;;
64619;SDS011;51029;51.058;13.826;2022-07-30T08:27:55;10.60;;;5.50;;
64619;SDS011;51029;51.058;13.826;2022-07-30T08:30:21;13.43;;;5.33;;
64619;SDS011;51029;51.058;13.826;2022-07-30T08:32:47;6.37;;;4.80;;
64619;SDS011;51029;51.058;13.826;2022-07-30T08:35:13;6.93;;;4.70;;
64619;SDS011;51029;51.058;13.826;2022-07-30T08:37:39;6.20;;;4.50;;
64619;SDS011;51029;51.058;13.826;2022-07-30T08:40:06;5.77;;;5.07;;
64619;SDS011;51029;51.058;13.826;2022-07-30T08:42:33;6.60;;;4.57;;
64619;SDS011;51029;51.058;13.826;2022-07-30T08:44:59;13.73;;;4.47;;
64619;SDS011;51029;51.058;13.826;2022-07-30T08:47:32;7.43;;;5.13;;
64619;SDS011;51029;51.058;13.826;2022-07-30T08:49:59;10.77;;;5.20;;
64619;SDS011;51029;51.058;13.826;2022-07-30T08:52:29;8.30;;;5.83;;
64619;SDS011;51029;51.058;13.826;2022-07-30T08:54:55;9.80;;;6.00;;
64619;SDS011;51029;51.058;13.826;2022-07-30T08:57:21;11.23;;;7.63;;
64619;SDS011;51029;51.058;13.826;2022-07-30T08:59:47;9.93;;;8.20;;
64619;SDS011;51029;51.058;13.826;2022-07-30T09:02:15;7.73;;;6.60;;
64619;SDS011;51029;51.058;13.826;2022-07-30T09:04:41;9.60;;;8.60;;
64619;SDS011;51029;51.058;13.826;2022-07-30T09:07:07;11.23;;;8.37;;
64619;SDS011;51029;51.058;13.826;2022-07-30T09:09:33;9.17;;;7.93;;
64619;SDS011;51029;51.058;13.826;2022-07-30T09:11:59;9.53;;;7.90;;
64619;SDS011;51029;51.058;13.826;2022-07-30T09:14:25;9.13;;;7.97;;
64619;SDS011;51029;51.058;13.826;2022-07-30T09:16:56;9.53;;;7.80;;
64619;SDS011;51029;51.058;13.826;2022-07-30T09:19:22;9.57;;;7.97;;
64619;SDS011;51029;51.058;13.826;2022-07-30T09:21:59;9.30;;;7.90;;
64619;SDS011;51029;51.058;13.826;2022-07-30T09:24:25;10.80;;;7.57;;
64619;SDS011;51029;51.058;13.826;2022-07-30T09:29:18;9.00;;;7.10;;
64619;SDS011;51029;51.058;13.826;2022-07-30T09:31:57;8.07;;;7.13;;
64619;SDS011;51029;51.058;13.826;2022-07-30T09:36:49;9.40;;;7.60;;
64619;SDS011;51029;51.058;13.826;2022-07-30T09:39:26;10.23;;;7.67;;
64619;SDS011;51029;51.058;13.826;2022-07-30T09:41:52;8.77;;;7.87;;
64619;SDS011;51029;51.058;13.826;2022-07-30T09:44:22;8.07;;;7.27;;
64619;SDS011;51029;51.058;13.826;2022-07-30T09:46:48;9.10;;;7.03;;
64619;SDS011;51029;51.058;13.826;2022-07-30T09:49:24;8.97;;;6.73;;
64619;SDS011;51029;51.058;13.826;2022-07-30T09:51:50;10.37;;;6.30;;
64619;SDS011;51029;51.058;13.826;2022-07-30T09:54:17;8.67;;;5.87;;
64619;SDS011;51029;51.058;13.826;2022-07-30T09:56:43;6.47;;;5.43;;
64619;SDS011;51029;51.058;13.826;2022-07-30T09:59:26;6.27;;;5.57;;
64619;SDS011;51029;51.058;13.826;2022-07-30T10:01:52;7.00;;;5.33;;
64619;SDS011;51029;51.058;13.826;2022-07-30T10:04:22;7.73;;;6.13;;
64619;SDS011;51029;51.058;13.826;2022-07-30T10:06:48;9.87;;;6.03;;
64619;SDS011;51029;51.058;13.826;2022-07-30T10:09:28;8.67;;;7.30;;
64619;SDS011;51029;51.058;13.826;2022-07-30T10:11:55;7.60;;;6.90;;
64619;SDS011;51029;51.058;13.826;2022-07-30T10:14:21;7.90;;;7.20;;
64619;SDS011;51029;51.058;13.826;2022-07-30T10:16:48;9.47;;;8.67;;
64619;SDS011;51029;51.058;13.826;2022-07-30T10:19:15;10.23;;;9.17;;
64619;SDS011;51029;51.058;13.826;2022-07-30T10:21:41;10.00;;;9.07;;
64619;SDS011;51029;51.058;13.826;2022-07-30T10:24:07;11.87;;;8.97;;
64619;SDS011;51029;51.058;13.826;2022-07-30T10:26:33;11.07;;;9.90;;
64619;SDS011;51029;51.058;13.826;2022-07-30T10:29:00;11.80;;;10.60;;
64619;SDS011;51029;51.058;13.826;2022-07-30T10:31:26;10.93;;;9.90;;
64619;SDS011;51029;51.058;13.826;2022-07-30T10:33:52;10.47;;;9.47;;
64619;SDS011;51029;51.058;13.826;2022-07-30T10:36:18;10.47;;;9.20;;
64619;SDS011;51029;51.058;13.826;2022-07-30T10:38:44;10.00;;;8.97;;
64619;SDS011;51029;51.058;13.826;2022-07-30T10:41:16;10.00;;;9.00;;
64619;SDS011;51029;51.058;13.826;2022-07-30T10:46:59;9.10;;;7.87;;
64619;SDS011;51029;51.058;13.826;2022-07-30T10:49:28;12.40;;;8.80;;
64619;SDS011;51029;51.058;13.826;2022-07-30T10:51:55;9.80;;;8.07;;
64619;SDS011;51029;51.058;13.826;2022-07-30T10:54:43;10.40;;;8.23;;
64619;SDS011;51029;51.058;13.826;2022-07-30T11:02:20;8.80;;;7.90;;
64619;SDS011;51029;51.058;13.826;2022-07-30T11:04:46;10.93;;;7.50;;
64619;SDS011;51029;51.058;13.826;2022-07-30T11:09:57;7.90;;;6.97;;
64619;SDS011;51029;51.058;13.826;2022-07-30T11:15:11;8.67;;;7.10;;
64619;SDS011;51029;51.058;13.826;2022-07-30T11:17:57;8.17;;;7.00;;
64619;SDS011;51029;51.058;13.826;2022-07-30T11:20:23;9.23;;;5.77;;
64619;SDS011;51029;51.058;13.826;2022-07-30T11:22:50;10.73;;;5.90;;
64619;SDS011;51029;51.058;13.826;2022-07-30T11:27:52;8.40;;;6.27;;
64619;SDS011;51029;51.058;13.826;2022-07-30T11:32:45;8.40;;;5.80;;
64619;SDS011;51029;51.058;13.826;2022-07-30T11:37:57;8.03;;;5.07;;
64619;SDS011;51029;51.058;13.826;2022-07-30T11:40:24;8.70;;;5.43;;
64619;SDS011;51029;51.058;13.826;2022-07-30T11:42:50;10.20;;;6.40;;
64619;SDS011;51029;51.058;13.826;2022-07-30T11:47:43;6.30;;;5.60;;
64619;SDS011;51029;51.058;13.826;2022-07-30T11:50:31;7.87;;;5.63;;
64619;SDS011;51029;51.058;13.826;2022-07-30T11:52:57;7.17;;;5.70;;
64619;SDS011;51029;51.058;13.826;2022-07-30T11:55:26;6.70;;;5.33;;
64619;SDS011;51029;51.058;13.826;2022-07-30T11:57:54;7.10;;;5.03;;
64619;SDS011;51029;51.058;13.826;2022-07-30T12:00:20;5.47;;;4.63;;
64619;SDS011;51029;51.058;13.826;2022-07-30T12:02:46;7.07;;;5.10;;
64619;SDS011;51029;51.058;13.826;2022-07-30T12:05:13;9.87;;;5.17;;
64619;SDS011;51029;51.058;13.826;2022-07-30T12:07:39;7.67;;;4.83;;
64619;SDS011;51029;51.058;13.826;2022-07-30T12:10:15;7.67;;;4.60;;
64619;SDS011;51029;51.058;13.826;2022-07-30T12:12:42;7.77;;;4.40;;
64619;SDS011;51029;51.058;13.826;2022-07-30T12:15:08;5.90;;;4.50;;
64619;SDS011;51029;51.058;13.826;2022-07-30T12:17:44;5.80;;;4.37;;
64619;SDS011;51029;51.058;13.826;2022-07-30T12:20:14;5.07;;;4.50;;
64619;SDS011;51029;51.058;13.826;2022-07-30T12:22:40;4.67;;;4.17;;
64619;SDS011;51029;51.058;13.826;2022-07-30T12:25:07;4.37;;;3.87;;
64619;SDS011;51029;51.058;13.826;2022-07-30T12:27:33;5.37;;;4.13;;
64619;SDS011;51029;51.058;13.826;2022-07-30T12:29:59;6.50;;;4.30;;
64619;SDS011;51029;51.058;13.826;2022-07-30T12:32:25;6.07;;;3.80;;
64619;SDS011;51029;51.058;13.826;2022-07-30T12:34:52;6.83;;;4.10;;
64619;SDS011;51029;51.058;13.826;2022-07-30T12:37:19;6.67;;;4.03;;
64619;SDS011;51029;51.058;13.826;2022-07-30T12:39:45;5.30;;;4.13;;
64619;SDS011;51029;51.058;13.826;2022-07-30T12:42:19;5.17;;;3.87;;
64619;SDS011;51029;51.058;13.826;2022-07-30T12:44:45;5.27;;;3.90;;
64619;SDS011;51029;51.058;13.826;2022-07-30T12:47:17;7.20;;;3.60;;
64619;SDS011;51029;51.058;13.826;2022-07-30T12:49:44;5.47;;;4.07;;
64619;SDS011;51029;51.058;13.826;2022-07-30T12:54:59;4.30;;;3.67;;
64619;SDS011;51029;51.058;13.826;2022-07-30T12:57:25;7.93;;;4.10;;
64619;SDS011;51029;51.058;13.826;2022-07-30T13:00:02;8.30;;;6.07;;
64619;SDS011;51029;51.058;13.826;2022-07-30T13:02:30;7.47;;;5.33;;
64619;SDS011;51029;51.058;13.826;2022-07-30T13:04:56;6.60;;;5.73;;
64619;SDS011;51029;51.058;13.826;2022-07-30T13:07:21;9.17;;;5.60;;
64619;SDS011;51029;51.058;13.826;2022-07-30T13:09:47;9.97;;;6.03;;
64619;SDS011;51029;51.058;13.826;2022-07-30T13:12:30;7.33;;;5.73;;
64619;SDS011;51029;51.058;13.826;2022-07-30T13:14:56;4.57;;;3.63;;
64619;SDS011;51029;51.058;13.826;2022-07-30T13:17:22;4.60;;;3.97;;
64619;SDS011;51029;51.058;13.826;2022-07-30T13:19:48;5.53;;;3.60;;
64619;SDS011;51029;51.058;13.826;2022-07-30T13:22:13;6.73;;;3.90;;
64619;SDS011;51029;51.058;13.826;2022-07-30T13:24:39;4.90;;;4.03;;
64619;SDS011;51029;51.058;13.826;2022-07-30T13:27:05;7.13;;;3.33;;
64619;SDS011;51029;51.058;13.826;2022-07-30T13:29:31;5.03;;;3.30;;
64619;SDS011;51029;51.058;13.826;2022-07-30T13:31:57;4.97;;;3.10;;
64619;SDS011;51029;51.058;13.826;2022-07-30T13:34:23;5.07;;;3.40;;
64619;SDS011;51029;51.058;13.826;2022-07-30T13:36:49;3.30;;;3.00;;
64619;SDS011;51029;51.058;13.826;2022-07-30T13:39:15;4.40;;;3.33;;
64619;SDS011;51029;51.058;13.826;2022-07-30T13:41:41;5.23;;;3.43;;
64619;SDS011;51029;51.058;13.826;2022-07-30T13:44:07;5.13;;;3.00;;
64619;SDS011;51029;51.058;13.826;2022-07-30T13:46:33;3.73;;;2.90;;
64619;SDS011;51029;51.058;13.826;2022-07-30T13:48:59;6.23;;;3.50;;
64619;SDS011;51029;51.058;13.826;2022-07-30T13:51:25;4.80;;;3.50;;
64619;SDS011;51029;51.058;13.826;2022-07-30T13:53:51;3.17;;;2.60;;
64619;SDS011;51029;51.058;13.826;2022-07-30T13:56:17;4.77;;;3.20;;
64619;SDS011;51029;51.058;13.826;2022-07-30T13:58:43;5.87;;;3.63;;
64619;SDS011;51029;51.058;13.826;2022-07-30T14:01:09;3.73;;;3.00;;
64619;SDS011;51029;51.058;13.826;2022-07-30T14:03:35;4.67;;;3.07;;
64619;SDS011;51029;51.058;13.826;2022-07-30T14:06:01;5.17;;;2.87;;
64619;SDS011;51029;51.058;13.826;2022-07-30T14:08:27;3.77;;;2.80;;
64619;SDS011;51029;51.058;13.826;2022-07-30T14:10:55;5.33;;;3.27;;
64619;SDS011;51029;51.058;13.826;2022-07-30T14:13:22;4.67;;;2.90;;
64619;SDS011;51029;51.058;13.826;2022-07-30T14:15:48;5.27;;;3.17;;
64619;SDS011;51029;51.058;13.826;2022-07-30T14:18:14;3.97;;;2.93;;
64619;SDS011;51029;51.058;13.826;2022-07-30T14:20:40;4.90;;;3.00;;
64619;SDS011;51029;51.058;13.826;2022-07-30T14:23:06;6.73;;;2.97;;
64619;SDS011;51029;51.058;13.826;2022-07-30T14:25:32;2.87;;;2.60;;
64619;SDS011;51029;51.058;13.826;2022-07-30T14:27:58;4.23;;;2.60;;
64619;SDS011;51029;51.058;13.826;2022-07-30T14:30:24;6.10;;;3.20;;
64619;SDS011;51029;51.058;13.826;2022-07-30T14:32:50;4.33;;;2.60;;
64619;SDS011;51029;51.058;13.826;2022-07-30T14:35:16;4.37;;;2.90;;
64619;SDS011;51029;51.058;13.826;2022-07-30T14:37:42;3.37;;;2.70;;
64619;SDS011;51029;51.058;13.826;2022-07-30T14:40:09;4.67;;;2.50;;
64619;SDS011;51029;51.058;13.826;2022-07-30T14:42:38;3.93;;;2.60;;
64619;SDS011;51029;51.058;13.826;2022-07-30T14:45:07;3.67;;;2.30;;
64619;SDS011;51029;51.058;13.826;2022-07-30T14:47:33;2.83;;;2.30;;
64619;SDS011;51029;51.058;13.826;2022-07-30T14:49:59;3.77;;;2.43;;
64619;SDS011;51029;51.058;13.826;2022-07-30T14:52:25;2.92;;;2.22;;
64619;SDS011;51029;51.058;13.826;2022-07-30T14:54:51;4.18;;;2.30;;
64619;SDS011;51029;51.058;13.826;2022-07-30T14:57:17;5.07;;;2.25;;
64619;SDS011;51029;51.058;13.826;2022-07-30T14:59:44;2.90;;;2.15;;
64619;SDS011;51029;51.058;13.826;2022-07-30T15:02:10;2.50;;;1.70;;
64619;SDS011;51029;51.058;13.826;2022-07-30T15:04:36;3.63;;;2.25;;